createdAt,value
2023-05-24T00:01:38.670Z,2.33
2023-05-24T00:04:06.678Z,2.60
2023-05-24T00:06:37.090Z,2.37
2023-05-24T00:09:06.293Z,2.23
2023-05-24T00:11:34.199Z,2.33
2023-05-24T00:14:02.004Z,2.20
2023-05-24T00:16:29.854Z,2.40
2023-05-24T00:18:59.190Z,2.93
2023-05-24T00:21:26.966Z,2.80
2023-05-24T00:23:54.800Z,3.03
2023-05-24T00:26:24.088Z,2.30
2023-05-24T00:28:56.819Z,2.27
2023-05-24T00:31:24.707Z,2.60
2023-05-24T00:33:52.932Z,2.57
2023-05-24T00:36:20.924Z,2.20
2023-05-24T00:38:49.033Z,2.90
2023-05-24T00:41:18.101Z,2.23
2023-05-24T00:43:47.579Z,2.27
2023-05-24T00:46:18.987Z,2.60
2023-05-24T00:48:47.582Z,3.20
2023-05-24T00:51:16.012Z,2.47
2023-05-24T00:53:46.781Z,2.43
2023-05-24T00:56:15.597Z,2.87
2023-05-24T00:58:44.265Z,2.60
2023-05-24T01:01:14.465Z,2.50
2023-05-24T01:03:43.367Z,2.00
2023-05-24T01:06:16.112Z,2.17
2023-05-24T01:08:53.624Z,2.60
2023-05-24T01:11:30.354Z,2.63
2023-05-24T01:14:14.456Z,3.03
2023-05-24T01:16:51.742Z,2.57
2023-05-24T01:19:44.906Z,2.57
2023-05-24T01:22:24.469Z,2.53
2023-05-24T01:25:03.720Z,2.70
2023-05-24T01:27:35.548Z,2.90
2023-05-24T01:30:04.705Z,2.60
2023-05-24T01:32:32.968Z,2.63
2023-05-24T01:35:00.806Z,3.03
2023-05-24T01:37:28.619Z,2.87
2023-05-24T01:39:56.640Z,2.57
2023-05-24T01:42:27.413Z,3.13
2023-05-24T01:45:05.724Z,2.57
2023-05-24T01:47:46.450Z,2.60
2023-05-24T01:50:21.667Z,2.90
2023-05-24T01:52:53.073Z,2.80
2023-05-24T01:55:23.259Z,2.63
2023-05-24T01:57:52.499Z,2.77
2023-05-24T02:00:23.096Z,3.23
2023-05-24T02:02:55.087Z,2.80
2023-05-24T02:05:23.324Z,2.70
2023-05-24T02:07:51.462Z,2.70
2023-05-24T02:10:19.340Z,3.00
2023-05-24T02:12:47.524Z,2.97
2023-05-24T02:15:15.463Z,2.90
2023-05-24T02:17:46.033Z,2.77
2023-05-24T02:20:14.726Z,2.83
2023-05-24T02:22:42.561Z,2.27
2023-05-24T02:25:11.152Z,2.93
2023-05-24T02:27:39.432Z,2.90
2023-05-24T02:30:08.867Z,3.57
2023-05-24T02:32:37.067Z,2.83
2023-05-24T02:35:07.696Z,3.20
2023-05-24T02:37:36.631Z,3.40
2023-05-24T02:40:05.318Z,3.27
2023-05-24T02:42:33.737Z,2.57
2023-05-24T02:45:01.579Z,2.63
2023-05-24T02:47:29.596Z,3.00
2023-05-24T02:49:57.634Z,3.30
2023-05-24T02:52:27.187Z,3.13
2023-05-24T02:54:55.080Z,2.73
2023-05-24T02:57:22.998Z,2.97
2023-05-24T02:59:51.615Z,2.97
2023-05-24T03:02:19.562Z,3.10
2023-05-24T03:04:47.445Z,3.17
2023-05-24T03:07:15.411Z,3.00
2023-05-24T03:09:45.521Z,3.33
2023-05-24T03:12:14.081Z,3.17
2023-05-24T03:14:41.876Z,3.43
2023-05-24T03:17:09.706Z,3.30
2023-05-24T03:19:37.531Z,3.10
2023-05-24T03:22:05.626Z,3.40
2023-05-24T03:24:34.436Z,3.60
2023-05-24T03:27:03.777Z,3.80
2023-05-24T03:29:31.703Z,3.03
2023-05-24T03:32:01.511Z,3.53
2023-05-24T03:34:30.264Z,3.63
2023-05-24T03:36:58.355Z,3.50
2023-05-24T03:39:26.369Z,3.43
2023-05-24T03:42:11.188Z,4.30
2023-05-24T03:44:40.071Z,4.00
2023-05-24T03:47:08.236Z,3.90
2023-05-24T03:49:36.197Z,4.33
2023-05-24T03:52:04.009Z,4.30
2023-05-24T03:54:31.844Z,3.93
2023-05-24T03:56:59.822Z,4.30
2023-05-24T03:59:30.779Z,4.20
2023-05-24T04:01:58.579Z,3.77
2023-05-24T04:04:26.588Z,3.50
2023-05-24T04:06:56.172Z,4.40
2023-05-24T04:09:24.704Z,4.23
2023-05-24T04:11:52.807Z,4.33
2023-05-24T04:14:20.612Z,4.43
2023-05-24T04:16:49.941Z,3.90
2023-05-24T04:19:20.310Z,3.77
2023-05-24T04:21:48.453Z,4.17
2023-05-24T04:24:16.425Z,4.37
2023-05-24T04:26:47.651Z,4.00
2023-05-24T04:29:16.121Z,3.83
2023-05-24T04:31:44.937Z,3.60
2023-05-24T04:34:14.697Z,3.70
2023-05-24T04:36:43.011Z,4.60
2023-05-24T04:39:12.638Z,4.40
2023-05-24T04:41:40.648Z,4.30
2023-05-24T04:44:08.609Z,3.87
2023-05-24T04:46:36.984Z,3.87
2023-05-24T04:49:05.776Z,4.47
2023-05-24T04:51:38.481Z,4.60
2023-05-24T04:54:09.115Z,4.93
2023-05-24T04:56:38.514Z,4.33
2023-05-24T04:59:06.849Z,4.23
2023-05-24T05:01:38.020Z,4.37
2023-05-24T05:04:06.112Z,3.93
2023-05-24T05:06:38.967Z,4.00
2023-05-24T05:09:09.440Z,4.03
2023-05-24T05:11:37.249Z,4.47
2023-05-24T05:14:05.086Z,4.93
2023-05-24T05:16:33.423Z,4.20
2023-05-24T05:19:01.524Z,4.47
2023-05-24T05:21:29.365Z,3.97
2023-05-24T05:23:58.571Z,4.97
2023-05-24T05:26:27.061Z,5.30
2023-05-24T05:28:55.731Z,4.83
2023-05-24T05:31:23.906Z,4.70
2023-05-24T05:33:51.715Z,5.30
2023-05-24T05:36:20.033Z,4.80
2023-05-24T05:38:48.235Z,5.37
2023-05-24T05:41:17.343Z,4.90
2023-05-24T05:43:45.159Z,5.10
2023-05-24T05:46:15.834Z,5.77
2023-05-24T05:48:45.677Z,4.90
2023-05-24T05:51:14.277Z,5.90
2023-05-24T05:53:42.111Z,5.07
2023-05-24T05:56:10.070Z,5.60
2023-05-24T05:58:39.444Z,5.10
2023-05-24T06:01:07.210Z,4.67
2023-05-24T06:03:35.098Z,5.83
2023-05-24T06:06:03.054Z,5.50
2023-05-24T06:08:34.925Z,5.00
2023-05-24T06:11:03.113Z,5.37
2023-05-24T06:13:31.361Z,5.70
2023-05-24T06:16:01.354Z,5.90
2023-05-24T06:18:30.486Z,6.23
2023-05-24T06:20:58.554Z,6.03
2023-05-24T06:23:26.803Z,5.87
2023-05-24T06:25:54.642Z,5.93
2023-05-24T06:28:22.746Z,6.33
2023-05-24T06:30:50.929Z,6.93
2023-05-24T06:33:20.871Z,6.37
2023-05-24T06:35:48.926Z,6.60
2023-05-24T06:38:18.052Z,6.43
2023-05-24T06:40:45.847Z,6.00
2023-05-24T06:43:13.674Z,5.67
2023-05-24T06:45:41.963Z,4.47
2023-05-24T06:48:09.917Z,4.87
2023-05-24T06:50:42.360Z,4.60
2023-05-24T06:53:10.956Z,4.37
2023-05-24T06:55:38.772Z,5.07
2023-05-24T06:58:07.914Z,4.50
2023-05-24T07:00:35.748Z,4.73
2023-05-24T07:03:05.390Z,4.60
2023-05-24T07:05:33.210Z,4.93
2023-05-24T07:08:02.509Z,4.60
2023-05-24T07:10:30.264Z,4.30
2023-05-24T07:12:58.088Z,3.87
2023-05-24T07:15:26.182Z,3.90
2023-05-24T07:17:54.499Z,4.00
2023-05-24T07:20:22.983Z,3.93
2023-05-24T07:22:51.986Z,4.60
2023-05-24T07:25:22.184Z,3.97
2023-05-24T07:27:51.006Z,3.30
2023-05-24T07:30:31.030Z,5.07
2023-05-24T07:33:00.490Z,4.00
2023-05-24T07:35:29.375Z,3.70
2023-05-24T07:37:57.689Z,3.53
2023-05-24T07:40:27.628Z,4.17
2023-05-24T07:42:55.477Z,3.80
2023-05-24T07:45:23.678Z,4.13
2023-05-24T07:47:52.362Z,3.57
2023-05-24T07:50:22.525Z,3.70
2023-05-24T07:52:51.283Z,3.00
2023-05-24T07:55:19.226Z,3.50
2023-05-24T07:57:48.601Z,3.80
2023-05-24T08:00:17.524Z,3.63
2023-05-24T08:02:46.808Z,3.63
2023-05-24T08:05:15.502Z,3.40
2023-05-24T08:07:43.329Z,3.80
2023-05-24T08:10:12.544Z,3.40
2023-05-24T08:12:40.709Z,3.87
2023-05-24T08:15:10.811Z,3.27
2023-05-24T08:17:39.299Z,3.77
2023-05-24T08:20:09.759Z,3.37
2023-05-24T08:22:38.283Z,3.20
2023-05-24T08:25:07.202Z,3.63
2023-05-24T08:27:35.068Z,3.70
2023-05-24T08:30:04.249Z,3.50
2023-05-24T08:32:33.781Z,3.93
2023-05-24T08:35:18.608Z,4.03
2023-05-24T08:37:49.267Z,3.47
2023-05-24T08:40:17.972Z,3.50
2023-05-24T08:42:46.784Z,3.50
2023-05-24T08:45:16.468Z,3.03
2023-05-24T08:47:46.726Z,3.30
2023-05-24T08:50:14.887Z,3.00
2023-05-24T08:52:45.088Z,3.10
2023-05-24T08:55:13.104Z,3.47
2023-05-24T08:57:41.912Z,3.00
2023-05-24T09:00:12.752Z,3.30
2023-05-24T09:02:42.739Z,3.53
2023-05-24T09:05:14.431Z,3.00
2023-05-24T09:07:44.144Z,3.30
2023-05-24T09:10:12.730Z,3.27
2023-05-24T09:12:44.891Z,4.23
2023-05-24T09:15:13.146Z,3.70
2023-05-24T09:17:41.624Z,4.40
2023-05-24T09:20:11.796Z,4.77
2023-05-24T09:22:43.932Z,4.93
2023-05-24T09:25:14.851Z,5.03
2023-05-24T09:27:47.494Z,5.37
2023-05-24T09:30:17.164Z,4.80
2023-05-24T09:32:56.370Z,5.23
2023-05-24T09:35:24.381Z,4.07
2023-05-24T09:37:55.409Z,4.30
2023-05-24T09:40:23.419Z,4.03
2023-05-24T09:43:04.045Z,3.30
2023-05-24T09:45:32.452Z,3.30
2023-05-24T09:48:00.852Z,3.17
2023-05-24T09:50:29.011Z,2.97
2023-05-24T09:52:58.193Z,3.63
2023-05-24T09:55:28.509Z,3.60
2023-05-24T09:58:04.686Z,3.57
2023-05-24T10:00:36.765Z,3.60
2023-05-24T10:03:07.314Z,3.40
2023-05-24T10:05:36.478Z,3.57
2023-05-24T10:08:06.230Z,3.43
2023-05-24T10:10:34.927Z,3.80
2023-05-24T10:13:03.507Z,3.33
2023-05-24T10:15:31.752Z,3.40
2023-05-24T10:18:00.031Z,3.40
2023-05-24T10:20:28.376Z,3.70
2023-05-24T10:23:00.907Z,3.40
2023-05-24T10:25:32.172Z,3.07
2023-05-24T10:28:03.598Z,3.37
2023-05-24T10:30:37.606Z,3.27
2023-05-24T10:33:09.523Z,3.27
2023-05-24T10:35:38.398Z,3.27
2023-05-24T10:38:08.461Z,3.47
2023-05-24T10:40:42.812Z,3.10
2023-05-24T10:43:11.690Z,3.23
2023-05-24T10:45:40.997Z,3.50
2023-05-24T10:48:36.185Z,3.13
2023-05-24T10:51:32.775Z,3.43
2023-05-24T10:54:13.578Z,3.80
2023-05-24T10:56:47.158Z,3.27
2023-05-24T10:59:29.080Z,3.40
2023-05-24T11:01:59.090Z,3.97
2023-05-24T11:04:27.405Z,3.47
2023-05-24T11:07:01.781Z,3.13
2023-05-24T11:09:29.891Z,3.20
2023-05-24T11:12:04.527Z,2.90
2023-05-24T11:14:33.229Z,3.73
2023-05-24T11:17:02.020Z,3.17
2023-05-24T11:19:35.371Z,3.73
2023-05-24T11:22:05.388Z,3.53
2023-05-24T11:24:34.340Z,3.13
2023-05-24T11:27:03.887Z,3.20
2023-05-24T11:29:31.849Z,3.53
2023-05-24T11:32:04.593Z,3.33
2023-05-24T11:34:34.231Z,3.33
2023-05-24T11:37:03.462Z,3.50
2023-05-24T11:39:32.928Z,3.10
2023-05-24T11:42:01.493Z,3.63
2023-05-24T11:44:33.524Z,3.20
2023-05-24T11:47:01.684Z,3.30
2023-05-24T11:49:30.012Z,3.50
2023-05-24T11:51:59.272Z,4.07
2023-05-24T11:54:28.574Z,3.10
2023-05-24T11:56:56.762Z,3.10
2023-05-24T11:59:26.434Z,3.00
2023-05-24T12:02:02.654Z,3.60
2023-05-24T12:04:31.363Z,3.20
2023-05-24T12:06:59.618Z,3.13
2023-05-24T12:09:28.728Z,3.57
2023-05-24T12:11:58.206Z,3.60
2023-05-24T12:14:31.085Z,3.77
2023-05-24T12:16:59.953Z,4.13
2023-05-24T12:19:35.141Z,3.07
2023-05-24T12:22:07.463Z,3.20
2023-05-24T12:24:36.263Z,3.40
2023-05-24T12:27:10.925Z,3.33
2023-05-24T12:29:41.567Z,3.70
2023-05-24T12:32:14.615Z,3.20
2023-05-24T12:34:46.058Z,3.50
2023-05-24T12:37:17.843Z,3.27
2023-05-24T12:39:48.535Z,3.37
2023-05-24T12:42:17.180Z,3.77
2023-05-24T12:44:45.846Z,3.33
2023-05-24T12:47:14.373Z,3.97
2023-05-24T12:49:43.449Z,3.53
2023-05-24T12:52:13.448Z,3.57
2023-05-24T12:54:42.048Z,3.27
2023-05-24T12:57:10.195Z,3.30
2023-05-24T12:59:38.434Z,3.37
2023-05-24T13:02:08.888Z,3.27
2023-05-24T13:04:39.979Z,3.23
2023-05-24T13:07:08.394Z,4.40
2023-05-24T13:09:37.958Z,3.63
2023-05-24T13:12:07.094Z,3.57
2023-05-24T13:14:36.103Z,3.40
2023-05-24T13:17:04.452Z,3.50
2023-05-24T13:19:33.072Z,3.87
2023-05-24T13:22:01.194Z,4.10
2023-05-24T13:24:29.670Z,3.80
2023-05-24T13:26:59.494Z,3.57
2023-05-24T13:29:39.404Z,3.00
2023-05-24T13:32:14.216Z,3.77
2023-05-24T13:34:43.415Z,3.60
2023-05-24T13:37:12.067Z,3.40
2023-05-24T13:39:40.828Z,3.80
2023-05-24T13:42:11.246Z,4.07
2023-05-24T13:44:40.163Z,3.73
2023-05-24T13:47:09.700Z,3.60
2023-05-24T13:49:40.274Z,3.30
2023-05-24T13:52:08.488Z,3.30
2023-05-24T13:54:36.737Z,3.30
2023-05-24T13:57:06.762Z,3.67
2023-05-24T13:59:36.480Z,3.50
2023-05-24T14:02:04.804Z,3.70
2023-05-24T14:04:33.199Z,3.10
2023-05-24T14:07:01.477Z,3.47
2023-05-24T14:09:29.813Z,3.23
2023-05-24T14:11:58.126Z,3.73
2023-05-24T14:16:59.257Z,3.63
2023-05-24T14:19:28.392Z,3.63
2023-05-24T14:21:56.540Z,3.80
2023-05-24T14:24:25.247Z,3.60
2023-05-24T14:26:53.590Z,3.70
2023-05-24T14:29:22.027Z,4.13
2023-05-24T14:31:50.836Z,3.97
2023-05-24T14:34:20.679Z,3.10
2023-05-24T14:36:48.752Z,3.70
2023-05-24T14:39:17.400Z,3.80
2023-05-24T14:41:45.985Z,3.93
2023-05-24T14:44:14.087Z,3.60
2023-05-24T14:46:42.819Z,4.20
2023-05-24T14:49:11.065Z,4.10
2023-05-24T14:51:40.969Z,3.40
2023-05-24T14:54:12.132Z,3.63
2023-05-24T14:56:42.715Z,4.00
2023-05-24T14:59:11.360Z,3.17
2023-05-24T15:01:40.680Z,3.47
2023-05-24T15:04:11.514Z,3.53
2023-05-24T15:06:41.382Z,3.97
2023-05-24T15:09:09.704Z,4.00
2023-05-24T15:11:37.997Z,3.17
2023-05-24T15:14:06.337Z,3.83
2023-05-24T15:16:34.789Z,3.50
2023-05-24T15:19:02.924Z,3.60
2023-05-24T15:21:31.377Z,4.13
2023-05-24T15:24:01.197Z,3.50
2023-05-24T15:26:30.284Z,3.90
2023-05-24T15:29:01.218Z,3.50
2023-05-24T15:31:29.353Z,3.73
2023-05-24T15:33:57.273Z,3.50
2023-05-24T15:36:25.434Z,3.80
2023-05-24T15:38:53.606Z,3.60
2023-05-24T15:41:23.200Z,3.73
2023-05-24T15:43:52.141Z,4.03
2023-05-24T15:46:22.539Z,3.93
2023-05-24T15:48:50.551Z,3.77
2023-05-24T15:53:49.145Z,4.00
2023-05-24T15:56:17.022Z,4.03
2023-05-24T15:58:47.049Z,3.83
2023-05-24T16:01:15.062Z,3.73
2023-05-24T16:03:46.495Z,4.77
2023-05-24T16:06:15.696Z,3.73
2023-05-24T16:08:44.252Z,4.10
2023-05-24T16:11:13.589Z,3.77
2023-05-24T16:13:41.637Z,4.13
2023-05-24T16:16:10.846Z,3.70
2023-05-24T16:18:39.046Z,4.00
2023-05-24T16:21:06.764Z,3.73
2023-05-24T16:23:34.619Z,4.07
2023-05-24T16:26:02.406Z,3.83
2023-05-24T16:28:30.162Z,4.20
2023-05-24T16:30:58.882Z,4.17
2023-05-24T16:33:28.146Z,4.10
2023-05-24T16:36:02.864Z,3.90
2023-05-24T16:38:31.243Z,3.20
2023-05-24T16:40:58.944Z,3.63
2023-05-24T16:43:45.614Z,3.70
2023-05-24T16:46:13.495Z,3.87
2023-05-24T16:48:42.891Z,4.20
2023-05-24T16:51:10.702Z,4.00
2023-05-24T16:53:38.797Z,4.57
2023-05-24T16:56:06.989Z,3.70
2023-05-24T16:58:34.787Z,4.17
2023-05-24T17:01:02.553Z,3.57
2023-05-24T17:03:32.817Z,4.83
2023-05-24T17:06:05.012Z,4.47
2023-05-24T17:08:34.514Z,4.50
2023-05-24T17:11:02.620Z,3.93
2023-05-24T17:13:30.811Z,4.13
2023-05-24T17:16:00.050Z,4.27
2023-05-24T17:18:31.116Z,3.60
2023-05-24T17:21:00.384Z,3.30
2023-05-24T17:23:31.849Z,3.77
2023-05-24T17:26:01.013Z,3.53
2023-05-24T17:28:29.449Z,4.23
2023-05-24T17:30:58.859Z,4.07
2023-05-24T17:33:28.331Z,4.00
2023-05-24T17:35:57.734Z,4.20
2023-05-24T17:38:26.228Z,3.60
2023-05-24T17:40:59.716Z,3.10
2023-05-24T17:43:31.746Z,3.33
2023-05-24T17:46:03.806Z,3.90
2023-05-24T17:48:32.721Z,3.37
2023-05-24T17:51:01.884Z,3.23
2023-05-24T17:53:32.104Z,4.10
2023-05-24T17:56:02.450Z,4.50
2023-05-24T17:58:35.712Z,3.70
2023-05-24T18:01:05.253Z,2.90
2023-05-24T18:03:33.659Z,3.40
2023-05-24T18:06:03.938Z,3.30
2023-05-24T18:08:31.964Z,3.80
2023-05-24T18:11:03.616Z,4.07
2023-05-24T18:13:31.576Z,3.33
2023-05-24T18:15:59.737Z,3.17
2023-05-24T18:18:29.587Z,3.30
2023-05-24T18:20:57.451Z,3.40
2023-05-24T18:23:25.947Z,3.63
2023-05-24T18:26:00.894Z,3.30
2023-05-24T18:28:32.735Z,3.93
2023-05-24T18:31:00.905Z,2.97
2023-05-24T18:33:28.757Z,3.77
2023-05-24T18:35:56.916Z,4.03
2023-05-24T18:38:24.825Z,3.70
2023-05-24T18:40:52.966Z,3.80
2023-05-24T18:43:20.733Z,4.60
2023-05-24T18:45:49.987Z,3.93
2023-05-24T18:48:17.750Z,4.03
2023-05-24T18:50:45.899Z,3.87
2023-05-24T18:53:13.979Z,3.77
2023-05-24T18:55:41.878Z,3.43
2023-05-24T18:58:10.080Z,4.00
2023-05-24T19:00:37.853Z,3.67
2023-05-24T19:03:10.834Z,3.60
2023-05-24T19:05:40.644Z,3.97
2023-05-24T19:08:10.603Z,3.60
2023-05-24T19:10:38.420Z,3.60
2023-05-24T19:13:07.212Z,3.83
2023-05-24T19:15:36.564Z,3.30
2023-05-24T19:18:04.577Z,3.47
2023-05-24T19:20:34.357Z,4.10
2023-05-24T19:23:02.300Z,3.87
2023-05-24T19:25:31.177Z,4.43
2023-05-24T19:28:00.497Z,4.60
2023-05-24T19:30:29.196Z,4.97
2023-05-24T19:32:57.061Z,4.50
2023-05-24T19:35:24.949Z,4.17
2023-05-24T19:37:54.139Z,5.30
2023-05-24T19:40:22.026Z,4.17
2023-05-24T19:42:50.317Z,4.57
2023-05-24T19:45:18.173Z,3.60
2023-05-24T19:47:46.541Z,4.63
2023-05-24T19:50:14.343Z,3.80
2023-05-24T19:52:42.146Z,3.77
2023-05-24T19:55:11.715Z,4.07
2023-05-24T19:57:39.483Z,3.80
2023-05-24T20:00:09.378Z,3.80
2023-05-24T20:02:40.526Z,3.77
2023-05-24T20:05:09.198Z,3.80
2023-05-24T20:07:37.212Z,3.97
2023-05-24T20:10:05.917Z,3.80
2023-05-24T20:12:35.351Z,4.17
2023-05-24T20:15:03.347Z,3.97
2023-05-24T20:17:31.402Z,4.50
2023-05-24T20:19:59.443Z,3.67
2023-05-24T20:22:27.242Z,3.60
2023-05-24T20:24:55.172Z,3.20
2023-05-24T20:27:22.991Z,3.43
2023-05-24T20:29:52.274Z,3.93
2023-05-24T20:32:20.291Z,3.70
2023-05-24T20:34:48.067Z,4.07
2023-05-24T20:37:16.004Z,3.70
2023-05-24T20:39:45.055Z,3.63
2023-05-24T20:42:12.948Z,3.87
2023-05-24T20:44:40.753Z,3.60
2023-05-24T20:47:10.188Z,3.67
2023-05-24T20:49:38.035Z,3.93
2023-05-24T20:52:06.254Z,3.93
2023-05-24T20:54:34.185Z,3.60
2023-05-24T20:57:02.786Z,3.63
2023-05-24T20:59:30.845Z,3.30
2023-05-24T21:01:58.590Z,3.80
2023-05-24T21:04:27.887Z,4.10
2023-05-24T21:06:56.247Z,3.77
2023-05-24T21:09:24.040Z,4.23
2023-05-24T21:11:51.887Z,4.57
2023-05-24T21:14:19.778Z,4.10
2023-05-24T21:16:47.652Z,3.40
2023-05-24T21:19:15.573Z,3.97
2023-05-24T21:21:44.796Z,3.90
2023-05-24T21:24:12.579Z,4.27
2023-05-24T21:26:40.485Z,4.13
2023-05-24T21:29:08.410Z,4.10
2023-05-24T21:31:36.263Z,4.40
2023-05-24T21:34:04.302Z,4.50
2023-05-24T21:36:32.461Z,4.13
2023-05-24T21:39:07.394Z,4.30
2023-05-24T21:41:35.642Z,4.40
2023-05-24T21:44:03.952Z,4.73
2023-05-24T21:46:33.566Z,4.60
2023-05-24T21:49:01.457Z,4.57
2023-05-24T21:51:29.488Z,3.90
2023-05-24T21:53:57.439Z,4.70
2023-05-24T21:56:27.063Z,4.63
2023-05-24T21:58:54.915Z,4.40
2023-05-24T22:01:22.742Z,4.33
2023-05-24T22:03:50.705Z,4.60
2023-05-24T22:06:18.555Z,5.33
2023-05-24T22:08:46.609Z,4.20
2023-05-24T22:11:14.768Z,4.80
2023-05-24T22:13:44.040Z,5.10
2023-05-24T22:16:11.850Z,5.20
2023-05-24T22:18:40.037Z,4.80
2023-05-24T22:21:07.851Z,4.60
2023-05-24T22:23:35.776Z,5.13
2023-05-24T22:26:03.619Z,4.97
2023-05-24T22:28:49.505Z,5.27
2023-05-24T22:31:19.824Z,4.20
2023-05-24T22:33:47.913Z,5.13
2023-05-24T22:36:16.085Z,5.13
2023-05-24T22:38:45.192Z,4.77
2023-05-24T22:41:13.049Z,5.60
2023-05-24T22:44:12.681Z,5.63
2023-05-24T22:46:41.899Z,4.70
2023-05-24T22:49:13.056Z,5.43
2023-05-24T22:51:44.416Z,5.33
2023-05-24T22:54:12.921Z,5.27
2023-05-24T22:56:40.733Z,5.10
2023-05-24T22:59:08.801Z,5.77
2023-05-24T23:01:36.611Z,5.03
2023-05-24T23:04:19.677Z,5.47
2023-05-24T23:06:48.800Z,5.87
2023-05-24T23:09:17.536Z,5.30
2023-05-24T23:11:46.058Z,5.63
2023-05-24T23:14:14.114Z,5.90
2023-05-24T23:16:45.693Z,6.00
2023-05-24T23:19:18.318Z,6.23
2023-05-24T23:21:47.257Z,5.27
2023-05-24T23:24:15.659Z,5.27
2023-05-24T23:26:43.823Z,5.63
2023-05-24T23:29:11.750Z,5.37
2023-05-24T23:31:39.822Z,5.43
2023-05-24T23:34:08.432Z,5.47
2023-05-24T23:36:37.798Z,6.03
2023-05-24T23:39:06.104Z,5.20
2023-05-24T23:41:33.989Z,4.87
2023-05-24T23:44:01.725Z,5.47
2023-05-24T23:46:29.514Z,5.77
2023-05-24T23:48:57.333Z,5.13
2023-05-24T23:51:25.329Z,5.20
2023-05-24T23:53:54.966Z,4.90
2023-05-24T23:56:23.210Z,5.10
2023-05-24T23:58:50.992Z,4.77
